Time;durP1;ratioP1;P1;durP2;ratioP2;P2;SDS_P1;SDS_P2;PMS_P1;PMS_P2;Temp;Humidity;BMP_temperature;BMP_pressure;BME280_temperature;BME280_humidity;BME280_pressure;Samples;Min_cycle;Max_cycle;Signal;HPM_P1;HPM_P2
2023/10/06 00:01:47;;;;;;;22.85;6.47;;;14.90;99.90;;;;;;4967048;28;20602;-83
2023/10/06 00:04:15;;;;;;;14.40;5.50;;;14.90;99.90;;;;;;4958411;28;20303;-81
2023/10/06 00:06:45;;;;;;;24.85;6.85;;;14.80;99.90;;;;;;4965600;28;20062;-82
2023/10/06 00:09:28;;;;;;;21.83;6.65;;;14.90;99.90;;;;;;4958547;28;20097;-80
2023/10/06 00:11:55;;;;;;;17.95;6.13;;;14.90;99.90;;;;;;4957839;28;20089;-82
2023/10/06 00:17:17;;;;;;;16.77;6.22;;;14.90;99.90;;;;;;4957144;28;20492;-83
2023/10/06 00:19:44;;;;;;;19.27;5.95;;;14.80;99.90;;;;;;4960242;28;20089;-80
2023/10/06 00:24:43;;;;;;;14.20;6.03;;;14.80;99.90;;;;;;4957930;28;20041;-81
2023/10/06 00:27:11;;;;;;;13.88;5.20;;;14.80;99.90;;;;;;4960231;28;20049;-81
2023/10/06 00:29:38;;;;;;;28.40;6.60;;;14.80;99.90;;;;;;4962356;28;20109;-82
2023/10/06 00:32:37;;;;;;;20.35;6.22;;;14.80;99.90;;;;;;4968872;28;20439;-82
2023/10/06 00:35:29;;;;;;;18.60;5.93;;;14.70;99.90;;;;;;4965760;28;20102;-82
2023/10/06 00:37:43;;;;;;;25.92;7.65;;;14.70;99.90;;;;;;4969393;28;20042;-81
2023/10/06 00:40:19;;;;;;;16.92;7.55;;;14.70;99.90;;;;;;4970554;28;20039;-81
2023/10/06 00:42:59;;;;;;;28.02;7.15;;;14.60;99.90;;;;;;4971885;28;20031;-81
2023/10/06 00:45:25;;;;;;;26.02;8.00;;;14.60;99.90;;;;;;4972620;28;20377;-81
2023/10/06 00:47:55;;;;;;;19.05;6.53;;;14.50;99.90;;;;;;4963225;28;20053;-81
2023/10/06 00:50:24;;;;;;;18.73;6.45;;;14.50;99.90;;;;;;4972137;28;20025;-82
2023/10/06 00:52:55;;;;;;;28.90;7.40;;;14.50;99.90;;;;;;4963069;28;20109;-83
2023/10/06 00:55:21;;;;;;;17.48;6.60;;;14.40;99.90;;;;;;4958705;28;20034;-84
2023/10/06 00:57:53;;;;;;;21.42;6.82;;;14.40;99.90;;;;;;4970067;28;20358;-82
2023/10/06 01:00:22;;;;;;;20.05;6.47;;;14.40;99.90;;;;;;4964229;28;20034;-83
2023/10/06 01:02:50;;;;;;;19.85;6.90;;;14.40;99.90;;;;;;4965694;28;20023;-85
2023/10/06 01:05:17;;;;;;;26.65;7.07;;;14.20;99.90;;;;;;4956165;28;20038;-83
2023/10/06 01:07:47;;;;;;;29.00;7.68;;;14.30;99.90;;;;;;4960519;28;20027;-83
2023/10/06 01:10:18;;;;;;;23.70;6.97;;;14.20;99.90;;;;;;4958346;28;20062;-82
2023/10/06 01:12:50;;;;;;;18.67;7.00;;;14.20;99.90;;;;;;4955758;28;20023;-82
2023/10/06 01:15:18;;;;;;;16.55;5.88;;;14.20;99.90;;;;;;4962923;28;20031;-81
2023/10/06 01:17:48;;;;;;;16.65;6.10;;;14.20;99.90;;;;;;4965454;28;20031;-79
2023/10/06 01:23:21;;;;;;;22.02;6.32;;;14.20;99.90;;;;;;4926480;28;20073;-83
2023/10/06 01:25:53;;;;;;;18.10;6.45;;;14.10;99.90;;;;;;4965395;28;20023;-80
2023/10/06 01:28:19;;;;;;;16.98;6.38;;;14.10;99.90;;;;;;4963440;28;20114;-81
2023/10/06 01:30:44;;;;;;;16.70;5.80;;;14.10;99.90;;;;;;4963428;28;20488;-80
2023/10/06 01:33:11;;;;;;;18.58;6.18;;;14.00;99.90;;;;;;4963456;28;20471;-80
2023/10/06 01:35:42;;;;;;;10.30;4.03;;;14.00;99.90;;;;;;4965503;28;20055;-81
2023/10/06 01:38:19;;;;;;;10.20;4.50;;;13.90;99.90;;;;;;4963894;28;20037;-81
2023/10/06 01:40:45;;;;;;;14.82;4.63;;;13.90;99.90;;;;;;4962986;28;20428;-80
2023/10/06 01:43:12;;;;;;;9.05;4.32;;;13.80;99.90;;;;;;4962232;28;20022;-80
2023/10/06 01:45:43;;;;;;;14.27;5.00;;;13.80;99.90;;;;;;4963714;28;20035;-81
2023/10/06 01:48:31;;;;;;;14.50;4.93;;;13.70;99.90;;;;;;4959039;28;20146;-81
2023/10/06 01:50:57;;;;;;;11.55;4.22;;;13.60;99.90;;;;;;4963066;28;20415;-81
2023/10/06 01:53:25;;;;;;;10.38;4.03;;;13.50;99.90;;;;;;4963884;28;20100;-81
2023/10/06 01:55:52;;;;;;;15.82;4.93;;;13.40;99.90;;;;;;4963308;28;20349;-81
2023/10/06 01:58:18;;;;;;;7.95;3.80;;;13.30;99.90;;;;;;4964304;28;20042;-80
2023/10/06 02:00:48;;;;;;;9.52;4.40;;;13.20;99.90;;;;;;4960791;28;20059;-80
2023/10/06 02:03:16;;;;;;;10.77;5.07;;;13.20;99.90;;;;;;4964896;28;20050;-80
2023/10/06 02:05:43;;;;;;;8.05;3.42;;;13.10;99.90;;;;;;4962265;28;20029;-80
2023/10/06 02:08:20;;;;;;;14.55;4.18;;;13.00;99.90;;;;;;4962695;28;20121;-80
2023/10/06 02:10:54;;;;;;;11.85;4.65;;;13.00;99.90;;;;;;4965478;28;20054;-81
2023/10/06 02:13:21;;;;;;;8.02;4.28;;;12.80;99.90;;;;;;4963578;28;20066;-81
2023/10/06 02:15:58;;;;;;;15.07;4.72;;;12.80;99.90;;;;;;4963850;28;20062;-81
2023/10/06 02:18:36;;;;;;;8.55;3.90;;;12.80;99.90;;;;;;4956726;28;20031;-80
2023/10/06 02:21:09;;;;;;;11.02;4.78;;;12.70;99.90;;;;;;4963333;28;20045;-81
2023/10/06 02:23:38;;;;;;;9.57;3.72;;;12.70;99.90;;;;;;4963016;28;20117;-80
2023/10/06 02:26:09;;;;;;;14.07;4.90;;;12.60;99.90;;;;;;4962717;28;20562;-80
2023/10/06 02:28:40;;;;;;;11.63;4.90;;;12.60;99.90;;;;;;4962953;28;20240;-80
2023/10/06 02:31:06;;;;;;;11.43;4.80;;;12.60;99.90;;;;;;4963247;28;20035;-80
2023/10/06 02:33:36;;;;;;;13.30;5.05;;;12.50;99.90;;;;;;4963320;28;20434;-84
2023/10/06 02:36:17;;;;;;;9.73;5.20;;;12.50;99.90;;;;;;4965332;28;20085;-81
2023/10/06 02:38:46;;;;;;;14.02;5.32;;;12.60;99.90;;;;;;4962259;28;20089;-81
2023/10/06 02:41:20;;;;;;;17.63;6.10;;;12.50;99.90;;;;;;4963893;28;20058;-81
2023/10/06 02:43:50;;;;;;;15.82;5.55;;;12.50;99.90;;;;;;4960404;28;20287;-81
2023/10/06 02:46:22;;;;;;;6.93;4.13;;;12.40;99.90;;;;;;4963217;28;20546;-80
2023/10/06 02:48:49;;;;;;;16.60;5.03;;;12.40;99.90;;;;;;4956204;28;20069;-80
2023/10/06 02:51:29;;;;;;;7.97;4.13;;;12.40;99.90;;;;;;4964053;28;20578;-80
2023/10/06 02:54:09;;;;;;;13.23;4.95;;;12.40;99.90;;;;;;4959642;28;20054;-82
2023/10/06 02:56:38;;;;;;;16.67;4.93;;;12.30;99.90;;;;;;4965157;28;20255;-81
2023/10/06 02:59:20;;;;;;;12.55;4.97;;;12.30;99.90;;;;;;4962518;28;20049;-81
2023/10/06 03:02:15;;;;;;;8.88;4.40;;;12.20;99.90;;;;;;4960120;28;20027;-81
2023/10/06 03:04:43;;;;;;;30.00;10.83;;;12.10;99.90;;;;;;4959015;28;20387;-81
2023/10/06 03:07:14;;;;;;;15.82;7.97;;;12.20;99.90;;;;;;4963205;28;20069;-80
2023/10/06 03:09:47;;;;;;;23.17;9.45;;;12.20;99.90;;;;;;4962997;28;20455;-79
2023/10/06 03:14:49;;;;;;;26.70;10.65;;;12.60;99.90;;;;;;4960405;28;20033;-82
2023/10/06 03:17:18;;;;;;;25.17;10.23;;;12.70;99.90;;;;;;4964243;28;20124;-80
2023/10/06 03:19:44;;;;;;;32.72;10.43;;;12.90;99.90;;;;;;4961633;28;20495;-78
2023/10/06 03:22:13;;;;;;;22.52;8.90;;;13.00;99.90;;;;;;4961379;28;20038;-81
2023/10/06 03:25:00;;;;;;;21.02;9.35;;;13.00;99.90;;;;;;4961275;28;20066;-79
2023/10/06 03:27:27;;;;;;;28.05;8.57;;;13.10;99.90;;;;;;4957877;28;20438;-81
2023/10/06 03:30:10;;;;;;;30.58;8.20;;;13.20;99.90;;;;;;4961860;28;20034;-81
2023/10/06 03:32:39;;;;;;;16.65;6.60;;;13.20;99.90;;;;;;4954743;28;20023;-79
2023/10/06 03:35:16;;;;;;;18.02;7.00;;;13.20;99.90;;;;;;4959867;28;20031;-81
2023/10/06 03:37:51;;;;;;;25.80;6.78;;;13.30;99.90;;;;;;4964839;28;20057;-80
2023/10/06 03:40:35;;;;;;;16.13;6.80;;;13.30;99.90;;;;;;4964092;28;20133;-80
2023/10/06 03:43:05;;;;;;;16.02;6.15;;;13.30;99.90;;;;;;4959046;28;20045;-79
2023/10/06 03:45:32;;;;;;;19.25;5.55;;;13.30;99.90;;;;;;4961294;28;20035;-81
2023/10/06 03:48:13;;;;;;;22.50;6.38;;;13.30;99.90;;;;;;4953372;28;20031;-80
2023/10/06 03:50:44;;;;;;;19.67;4.60;;;13.30;99.90;;;;;;4961346;28;20033;-85
2023/10/06 03:53:12;;;;;;;21.60;6.00;;;13.40;99.90;;;;;;4961240;28;20034;-82
2023/10/06 03:55:43;;;;;;;31.50;5.70;;;13.40;99.90;;;;;;4960151;28;20052;-82
2023/10/06 03:58:11;;;;;;;14.85;4.90;;;13.40;99.90;;;;;;4961793;28;20039;-84
2023/10/06 04:00:40;;;;;;;31.88;5.85;;;13.30;99.90;;;;;;4962805;28;20038;-83
2023/10/06 04:03:10;;;;;;;20.88;5.32;;;13.40;99.90;;;;;;4963216;28;20077;-82
2023/10/06 04:05:39;;;;;;;18.63;5.30;;;13.40;99.90;;;;;;4957852;28;20034;-83
2023/10/06 04:08:11;;;;;;;19.10;5.00;;;13.40;99.90;;;;;;4965918;28;20026;-80
2023/10/06 04:10:42;;;;;;;17.95;4.55;;;13.40;99.90;;;;;;4967155;28;20042;-82
2023/10/06 04:13:09;;;;;;;22.10;4.95;;;13.40;99.90;;;;;;4967032;28;20512;-81
2023/10/06 04:15:38;;;;;;;23.90;6.13;;;13.30;99.90;;;;;;4964841;28;20042;-83
2023/10/06 04:18:11;;;;;;;15.20;4.70;;;13.30;99.90;;;;;;4963009;28;20499;-81
2023/10/06 04:20:39;;;;;;;15.50;5.63;;;13.40;99.90;;;;;;4965777;28;20023;-84
2023/10/06 04:23:05;;;;;;;17.58;5.28;;;13.30;99.90;;;;;;4963476;28;20035;-84
2023/10/06 04:25:31;;;;;;;17.15;4.43;;;13.30;99.90;;;;;;4964822;28;20034;-81
2023/10/06 04:27:57;;;;;;;11.35;4.20;;;13.30;99.90;;;;;;4963333;28;20061;-83
2023/10/06 04:30:25;;;;;;;24.10;5.30;;;13.30;99.90;;;;;;4967635;28;20090;-83
2023/10/06 04:32:51;;;;;;;17.70;5.13;;;13.30;99.90;;;;;;4954255;28;20053;-83
2023/10/06 04:35:24;;;;;;;12.63;4.78;;;13.30;99.90;;;;;;4962354;28;20037;-83
2023/10/06 04:37:50;;;;;;;14.68;5.85;;;13.30;99.90;;;;;;4966748;28;20452;-79
2023/10/06 04:40:20;;;;;;;22.70;6.40;;;13.30;99.90;;;;;;4966362;28;20067;-82
2023/10/06 04:42:46;;;;;;;12.27;3.95;;;13.30;99.90;;;;;;4967169;28;20038;-83
2023/10/06 04:45:12;;;;;;;16.80;4.50;;;13.30;99.90;;;;;;4960424;28;20380;-80
2023/10/06 04:47:41;;;;;;;10.23;3.75;;;13.30;99.90;;;;;;4956373;28;20034;-82
2023/10/06 04:50:12;;;;;;;15.05;4.50;;;13.30;99.90;;;;;;4959466;28;20455;-83
2023/10/06 04:52:39;;;;;;;15.82;4.88;;;13.20;99.90;;;;;;4962259;28;20033;-81
2023/10/06 04:55:12;;;;;;;11.43;4.32;;;13.30;99.90;;;;;;4962926;28;20122;-84
2023/10/06 04:57:38;;;;;;;23.27;6.07;;;13.20;99.90;;;;;;4964762;28;20023;-87
2023/10/06 05:00:22;;;;;;;20.58;5.25;;;13.20;99.90;;;;;;4961391;28;20045;-84
2023/10/06 05:02:50;;;;;;;12.68;4.22;;;13.20;99.90;;;;;;4961398;28;20037;-81
2023/10/06 05:05:22;;;;;;;18.95;4.38;;;13.30;99.90;;;;;;4959731;28;20134;-82
2023/10/06 05:07:53;;;;;;;15.68;4.85;;;13.20;99.90;;;;;;4958917;28;20034;-84
2023/10/06 05:10:25;;;;;;;14.80;4.50;;;13.20;99.90;;;;;;4960908;28;20046;-82
2023/10/06 05:12:52;;;;;;;14.20;4.05;;;13.20;99.90;;;;;;4960009;28;20159;-82
2023/10/06 05:15:23;;;;;;;16.13;4.32;;;13.20;99.90;;;;;;4962440;28;20434;-85
2023/10/06 05:17:56;;;;;;;20.70;4.53;;;13.20;99.90;;;;;;4960701;28;20109;-83
2023/10/06 05:20:32;;;;;;;14.13;4.45;;;13.20;99.90;;;;;;4960898;28;20101;-84
2023/10/06 05:22:58;;;;;;;20.00;3.97;;;13.10;99.90;;;;;;4963354;28;20174;-85
2023/10/06 05:25:26;;;;;;;14.25;4.13;;;13.20;99.90;;;;;;4967927;28;20488;-82
2023/10/06 05:27:53;;;;;;;13.98;4.32;;;13.20;99.90;;;;;;4961325;28;20073;-82
2023/10/06 05:30:21;;;;;;;9.75;3.95;;;13.20;99.90;;;;;;4962501;28;20030;-82
2023/10/06 05:32:47;;;;;;;17.33;4.05;;;13.20;99.90;;;;;;4964640;28;20440;-83
2023/10/06 05:35:15;;;;;;;14.40;4.63;;;13.20;99.90;;;;;;4964539;28;20031;-83
2023/10/06 05:37:46;;;;;;;14.95;3.92;;;13.20;99.90;;;;;;4966635;28;20034;-82
2023/10/06 05:40:20;;;;;;;14.32;3.95;;;13.20;99.90;;;;;;4961091;28;20058;-85
2023/10/06 05:42:49;;;;;;;13.48;4.03;;;13.20;99.90;;;;;;4963596;28;20089;-85
2023/10/06 05:45:56;;;;;;;13.48;3.80;;;13.20;99.90;;;;;;4960015;28;20034;-85
2023/10/06 05:48:25;;;;;;;21.05;4.68;;;13.20;99.90;;;;;;4960900;28;20073;-85
2023/10/06 05:50:52;;;;;;;13.45;4.07;;;13.20;99.90;;;;;;4961745;28;20035;-82
2023/10/06 05:53:23;;;;;;;21.45;3.85;;;13.20;99.90;;;;;;4958834;28;20066;-85
2023/10/06 05:55:52;;;;;;;16.85;4.50;;;13.20;99.90;;;;;;4962017;28;20045;-83
2023/10/06 05:58:19;;;;;;;21.13;4.38;;;13.20;99.90;;;;;;4965206;28;20458;-82
2023/10/06 06:01:05;;;;;;;16.77;4.32;;;13.30;99.90;;;;;;4963630;28;20031;-84
2023/10/06 06:04:12;;;;;;;13.43;3.47;;;13.30;99.90;;;;;;4956858;28;20046;-84
2023/10/06 06:06:37;;;;;;;14.70;4.65;;;13.30;99.90;;;;;;4957830;28;20260;-81
2023/10/06 06:09:14;;;;;;;15.18;3.88;;;13.30;99.90;;;;;;4962645;28;20031;-82
2023/10/06 06:11:40;;;;;;;17.33;3.80;;;13.30;99.90;;;;;;4959852;28;20086;-80
2023/10/06 06:14:05;;;;;;;14.20;4.10;;;13.30;99.90;;;;;;4958962;28;20030;-79
2023/10/06 06:16:31;;;;;;;19.00;4.50;;;13.30;99.90;;;;;;4962650;28;20135;-80
2023/10/06 06:18:57;;;;;;;13.30;4.43;;;13.30;99.90;;;;;;4964183;28;20045;-84
2023/10/06 06:21:24;;;;;;;16.98;4.60;;;13.30;99.90;;;;;;4967978;28;20031;-82
2023/10/06 06:23:53;;;;;;;14.38;3.53;;;13.40;99.90;;;;;;4967356;28;20038;-83
2023/10/06 06:26:19;;;;;;;20.15;3.55;;;13.40;99.90;;;;;;4962423;28;20397;-83
2023/10/06 06:28:45;;;;;;;13.40;4.13;;;13.40;99.90;;;;;;4967769;28;20034;-84
2023/10/06 06:31:18;;;;;;;12.25;3.65;;;13.50;99.90;;;;;;4955089;28;20030;-82
2023/10/06 06:33:43;;;;;;;16.98;4.85;;;13.50;99.90;;;;;;4963828;28;20113;-83
2023/10/06 06:36:09;;;;;;;13.13;3.95;;;13.50;99.90;;;;;;4963381;28;20125;-83
2023/10/06 06:38:39;;;;;;;14.23;4.10;;;13.50;99.90;;;;;;4966256;28;20070;-82
2023/10/06 06:41:05;;;;;;;19.50;4.10;;;13.60;99.90;;;;;;4959154;28;20042;-83
2023/10/06 06:43:31;;;;;;;10.98;3.78;;;13.60;99.90;;;;;;4960844;28;20085;-81
2023/10/06 06:45:58;;;;;;;11.98;4.00;;;13.60;99.90;;;;;;4964860;28;20034;-82
2023/10/06 06:48:24;;;;;;;14.18;4.32;;;13.60;99.90;;;;;;4962750;28;20061;-83
2023/10/06 06:50:52;;;;;;;15.85;4.70;;;13.60;99.90;;;;;;4960378;28;20069;-84
2023/10/06 06:53:18;;;;;;;18.60;4.03;;;13.70;99.90;;;;;;4960097;28;20039;-83
2023/10/06 06:55:44;;;;;;;13.30;3.90;;;13.70;99.90;;;;;;4954965;28;20472;-83
2023/10/06 06:58:10;;;;;;;19.58;4.45;;;13.70;99.90;;;;;;4956293;28;20035;-81
2023/10/06 07:00:39;;;;;;;18.48;4.28;;;13.80;99.90;;;;;;4956554;28;20031;-85
2023/10/06 07:03:06;;;;;;;12.63;3.80;;;13.80;99.90;;;;;;4958184;28;20169;-80
2023/10/06 07:05:34;;;;;;;13.38;4.22;;;13.80;99.90;;;;;;4959146;28;20053;-82
2023/10/06 07:08:03;;;;;;;17.85;4.13;;;13.90;99.90;;;;;;4961405;28;20026;-83
2023/10/06 07:10:30;;;;;;;14.63;3.90;;;14.00;99.90;;;;;;4956264;28;20548;-82
2023/10/06 07:13:00;;;;;;;17.73;4.65;;;14.00;99.90;;;;;;4955112;28;20391;-81
2023/10/06 07:15:29;;;;;;;14.57;3.92;;;14.10;99.90;;;;;;4959376;28;20031;-82
2023/10/06 07:18:26;;;;;;;16.40;3.45;;;14.20;99.90;;;;;;4955908;28;20034;-86
2023/10/06 07:20:52;;;;;;;17.63;3.72;;;14.20;99.90;;;;;;4871315;29;20045;-83
2023/10/06 07:23:18;;;;;;;24.13;3.50;;;14.20;99.90;;;;;;4955889;28;20476;-82
2023/10/06 07:25:44;;;;;;;15.98;3.70;;;14.30;99.90;;;;;;4958056;28;20031;-83
2023/10/06 07:28:12;;;;;;;11.50;3.50;;;14.30;99.90;;;;;;4953835;28;20130;-81
2023/10/06 07:30:37;;;;;;;15.50;3.65;;;14.20;99.90;;;;;;4959370;28;20023;-83
2023/10/06 07:33:03;;;;;;;11.80;3.47;;;14.20;99.90;;;;;;4955756;28;20605;-82
2023/10/06 07:35:36;;;;;;;16.15;4.00;;;14.30;99.90;;;;;;4961229;28;20085;-81
2023/10/06 07:38:03;;;;;;;13.38;3.03;;;14.30;99.90;;;;;;4958237;28;20603;-83
2023/10/06 07:40:29;;;;;;;14.40;3.40;;;14.20;99.90;;;;;;4960605;28;20042;-83
2023/10/06 07:42:55;;;;;;;12.45;3.08;;;14.30;99.90;;;;;;4961978;28;20396;-82
2023/10/06 07:45:21;;;;;;;18.17;3.72;;;14.30;99.90;;;;;;4962123;28;20042;-81
2023/10/06 07:47:47;;;;;;;19.30;3.90;;;14.40;99.90;;;;;;4958786;28;20607;-81
2023/10/06 07:50:14;;;;;;;10.20;3.17;;;14.40;99.90;;;;;;4958952;28;20031;-82
2023/10/06 07:52:42;;;;;;;10.90;3.35;;;14.50;99.90;;;;;;4961536;28;20038;-81
2023/10/06 07:55:09;;;;;;;8.40;3.05;;;14.50;99.90;;;;;;4961350;28;20039;-81
2023/10/06 07:57:36;;;;;;;13.35;2.88;;;14.60;99.90;;;;;;4963995;28;20439;-82
2023/10/06 08:00:06;;;;;;;12.65;3.00;;;14.60;99.90;;;;;;4962489;28;20053;-81
2023/10/06 08:02:33;;;;;;;20.50;4.28;;;14.60;99.90;;;;;;4963984;28;20114;-81
2023/10/06 08:05:02;;;;;;;16.23;3.03;;;14.60;99.90;;;;;;4966201;28;20034;-81
2023/10/06 08:07:27;;;;;;;15.07;3.10;;;14.70;99.90;;;;;;4959557;28;20030;-83
2023/10/06 08:10:00;;;;;;;11.23;2.80;;;14.80;99.90;;;;;;4960700;28;20049;-81
2023/10/06 08:12:29;;;;;;;13.85;3.50;;;14.80;99.90;;;;;;4960616;28;20799;-83
2023/10/06 08:14:55;;;;;;;11.98;3.17;;;14.90;99.90;;;;;;4960359;28;20045;-80
2023/10/06 08:17:21;;;;;;;14.52;3.38;;;14.90;99.90;;;;;;4961627;28;20019;-81
2023/10/06 08:19:47;;;;;;;18.63;3.83;;;15.00;99.90;;;;;;4957350;28;20088;-82
2023/10/06 08:22:13;;;;;;;13.32;3.72;;;15.10;99.90;;;;;;4956544;28;20035;-82
2023/10/06 08:24:39;;;;;;;16.38;3.80;;;15.20;99.90;;;;;;4960654;28;20045;-84
2023/10/06 08:27:07;;;;;;;13.80;3.50;;;15.20;99.90;;;;;;4958731;28;20624;-82
2023/10/06 08:29:33;;;;;;;8.00;2.47;;;15.20;99.90;;;;;;4958715;28;20031;-81
2023/10/06 08:31:59;;;;;;;10.10;2.83;;;15.20;99.90;;;;;;4961268;28;20038;-79
2023/10/06 08:34:25;;;;;;;12.95;2.83;;;15.20;99.90;;;;;;4956296;28;20062;-83
2023/10/06 08:36:52;;;;;;;13.40;3.38;;;15.30;99.90;;;;;;4959650;28;20513;-80
2023/10/06 08:39:18;;;;;;;13.65;2.88;;;15.30;99.90;;;;;;4962291;28;20042;-81
2023/10/06 08:41:45;;;;;;;19.23;3.53;;;15.30;99.90;;;;;;4959949;28;20223;-80
2023/10/06 08:44:14;;;;;;;11.13;2.70;;;15.40;99.90;;;;;;4961472;28;20027;-81
2023/10/06 08:46:44;;;;;;;16.23;3.53;;;15.40;99.90;;;;;;4956562;28;20042;-80
2023/10/06 08:49:11;;;;;;;13.07;3.10;;;15.40;99.90;;;;;;4957022;28;20042;-80
2023/10/06 08:51:40;;;;;;;13.07;3.38;;;15.40;99.90;;;;;;4956034;28;20027;-80
2023/10/06 08:54:13;;;;;;;16.10;3.45;;;15.50;99.90;;;;;;4959833;28;20034;-81
2023/10/06 08:56:39;;;;;;;13.15;3.45;;;15.50;99.90;;;;;;4969637;28;20050;-82
2023/10/06 08:59:05;;;;;;;25.40;4.13;;;15.50;99.90;;;;;;4967653;28;20038;-80
2023/10/06 09:01:32;;;;;;;15.75;3.60;;;15.50;99.90;;;;;;4968672;28;20087;-80
2023/10/06 09:04:03;;;;;;;13.38;3.00;;;15.50;99.90;;;;;;4967268;28;20027;-81
2023/10/06 09:06:29;;;;;;;17.08;3.63;;;15.60;99.90;;;;;;4967425;28;20026;-79
2023/10/06 09:08:56;;;;;;;14.73;3.88;;;15.50;99.90;;;;;;4967031;28;20377;-81
2023/10/06 09:11:40;;;;;;;8.75;2.72;;;15.50;99.90;;;;;;4968601;28;20391;-81
2023/10/06 09:14:11;;;;;;;12.07;3.50;;;15.40;99.90;;;;;;4967591;28;20058;-79
2023/10/06 09:16:50;;;;;;;15.02;3.50;;;15.40;99.90;;;;;;4968764;28;20037;-83
2023/10/06 09:19:15;;;;;;;10.88;3.08;;;15.50;99.90;;;;;;4964992;28;20030;-81
2023/10/06 09:22:07;;;;;;;10.65;3.70;;;15.50;99.90;;;;;;4952434;28;20033;-80
2023/10/06 09:24:33;;;;;;;12.13;3.33;;;15.50;99.90;;;;;;4962032;28;20495;-78
2023/10/06 09:26:58;;;;;;;17.20;3.03;;;15.60;99.90;;;;;;4964830;28;20031;-81
2023/10/06 09:29:32;;;;;;;12.93;2.95;;;15.60;99.90;;;;;;4962497;28;20027;-80
2023/10/06 09:31:58;;;;;;;41.35;5.82;;;15.70;99.90;;;;;;4961337;28;20041;-80
2023/10/06 09:34:27;;;;;;;12.77;3.08;;;15.70;99.90;;;;;;4964792;28;20510;-81
2023/10/06 09:36:53;;;;;;;14.90;3.38;;;15.80;99.90;;;;;;4959824;28;20098;-79
2023/10/06 09:39:33;;;;;;;12.55;3.88;;;15.70;99.90;;;;;;4961446;28;20042;-80
2023/10/06 09:42:00;;;;;;;10.45;2.80;;;15.90;99.90;;;;;;4964347;28;20031;-81
2023/10/06 09:44:30;;;;;;;22.30;3.90;;;15.90;99.90;;;;;;4969747;28;20026;-81
2023/10/06 09:47:00;;;;;;;12.18;3.30;;;15.90;99.90;;;;;;4960626;28;20065;-78
2023/10/06 09:49:28;;;;;;;18.73;3.75;;;15.90;99.90;;;;;;4957005;28;20547;-78
2023/10/06 09:52:02;;;;;;;20.92;3.17;;;16.10;99.90;;;;;;4962602;28;20031;-80
2023/10/06 09:54:29;;;;;;;11.82;2.95;;;16.10;99.90;;;;;;4967369;28;20026;-81
2023/10/06 09:56:56;;;;;;;12.60;3.53;;;16.20;99.90;;;;;;4966790;28;20039;-81
2023/10/06 09:59:24;;;;;;;9.38;3.35;;;16.20;99.90;;;;;;4967743;28;20062;-79
2023/10/06 10:01:51;;;;;;;15.73;3.97;;;16.30;99.90;;;;;;4964429;28;20054;-79
2023/10/06 10:04:19;;;;;;;8.70;2.95;;;16.30;99.90;;;;;;4965169;28;20038;-80
2023/10/06 10:06:45;;;;;;;16.85;3.10;;;16.40;99.90;;;;;;4960763;28;20043;-81
2023/10/06 10:09:17;;;;;;;17.85;3.38;;;16.40;99.90;;;;;;4963452;28;20436;-81
2023/10/06 10:12:02;;;;;;;11.32;2.83;;;16.40;99.90;;;;;;4964371;28;20063;-80
2023/10/06 10:14:41;;;;;;;10.20;2.88;;;16.50;99.90;;;;;;4955381;28;20035;-82
2023/10/06 10:17:29;;;;;;;12.23;3.35;;;16.40;99.90;;;;;;4958751;28;20098;-80
2023/10/06 10:19:55;;;;;;;9.88;3.20;;;16.40;99.90;;;;;;4961921;28;20046;-81
2023/10/06 10:22:22;;;;;;;8.20;2.67;;;16.50;99.90;;;;;;4958965;28;20031;-82
2023/10/06 10:24:48;;;;;;;14.77;4.22;;;16.50;99.90;;;;;;4956355;28;20030;-80
2023/10/06 10:27:17;;;;;;;9.70;3.00;;;16.50;99.90;;;;;;4963618;28;20262;-79
2023/10/06 10:29:43;;;;;;;10.98;2.65;;;16.60;99.90;;;;;;4963206;28;20023;-81
2023/10/06 10:32:24;;;;;;;13.00;3.40;;;16.70;99.90;;;;;;4958725;28;20074;-80
2023/10/06 10:35:13;;;;;;;10.23;2.90;;;16.70;99.90;;;;;;4962201;28;20093;-81
2023/10/06 10:38:06;;;;;;;11.98;2.95;;;16.70;99.90;;;;;;4964719;28;20439;-81
2023/10/06 10:40:48;;;;;;;12.88;3.35;;;16.70;99.90;;;;;;4963612;28;20038;-81
2023/10/06 10:43:15;;;;;;;13.43;3.75;;;16.70;99.90;;;;;;4962237;28;20039;-81
2023/10/06 10:45:45;;;;;;;18.08;3.17;;;16.80;99.90;;;;;;4959486;28;20031;-83
2023/10/06 10:48:15;;;;;;;14.18;3.40;;;16.80;99.90;;;;;;4965243;28;20027;-80
2023/10/06 10:50:53;;;;;;;10.82;3.22;;;16.90;99.90;;;;;;4965117;28;20031;-82
2023/10/06 10:53:22;;;;;;;12.90;3.50;;;16.90;99.90;;;;;;4963920;28;20084;-81
2023/10/06 10:55:48;;;;;;;14.35;3.28;;;16.90;99.90;;;;;;4966172;28;20495;-80
2023/10/06 10:58:42;;;;;;;7.63;3.03;;;17.00;99.90;;;;;;4964768;28;20081;-81
2023/10/06 11:01:31;;;;;;;6.47;2.40;;;17.10;99.90;;;;;;4960128;28;20031;-82
2023/10/06 11:04:18;;;;;;;11.93;2.97;;;17.10;99.90;;;;;;4963195;28;20531;-85
2023/10/06 11:06:50;;;;;;;10.48;3.30;;;17.10;99.90;;;;;;4962467;28;20561;-82
2023/10/06 11:09:37;;;;;;;11.30;2.97;;;17.20;99.90;;;;;;4967306;28;20035;-82
2023/10/06 11:12:09;;;;;;;8.82;3.17;;;17.10;99.90;;;;;;4970440;28;20468;-81
2023/10/06 11:14:43;;;;;;;9.07;2.65;;;17.20;99.90;;;;;;4959408;28;20038;-82
2023/10/06 11:17:10;;;;;;;18.73;3.63;;;17.10;99.90;;;;;;4961977;28;20041;-82
2023/10/06 11:19:38;;;;;;;6.82;2.60;;;17.20;99.90;;;;;;4960803;28;20074;-81
2023/10/06 11:22:19;;;;;;;11.38;3.78;;;17.20;99.90;;;;;;4962403;28;20038;-83
2023/10/06 11:24:48;;;;;;;7.50;3.03;;;17.40;99.90;;;;;;4963730;28;20068;-81
2023/10/06 11:27:22;;;;;;;9.27;3.03;;;17.40;99.90;;;;;;4963403;28;20108;-83
2023/10/06 11:29:51;;;;;;;9.85;2.67;;;17.40;99.90;;;;;;4961022;28;20035;-86
2023/10/06 11:32:21;;;;;;;14.07;3.30;;;17.40;99.90;;;;;;4963483;28;20242;-84
2023/10/06 11:34:51;;;;;;;6.65;2.70;;;17.50;99.90;;;;;;4958423;28;20042;-82
2023/10/06 11:37:24;;;;;;;6.13;2.47;;;17.60;99.90;;;;;;4960422;28;20078;-83
2023/10/06 11:39:53;;;;;;;13.73;2.92;;;17.70;99.90;;;;;;4963407;28;20045;-80
2023/10/06 11:42:22;;;;;;;14.95;3.13;;;17.80;99.90;;;;;;4961525;28;20035;-81
2023/10/06 11:44:48;;;;;;;8.50;3.08;;;17.90;99.90;;;;;;4962689;28;20035;-81
2023/10/06 11:47:13;;;;;;;6.30;2.90;;;17.90;99.90;;;;;;4963420;28;20033;-81
2023/10/06 11:49:59;;;;;;;13.50;3.17;;;17.90;99.90;;;;;;4961685;28;20111;-83
2023/10/06 11:52:25;;;;;;;13.10;3.43;;;17.90;99.90;;;;;;4961014;28;20035;-80
2023/10/06 11:54:51;;;;;;;8.85;3.45;;;17.80;99.90;;;;;;4964135;28;20046;-81
2023/10/06 11:57:41;;;;;;;7.72;2.83;;;17.80;99.90;;;;;;4965354;28;20034;-79
2023/10/06 12:00:10;;;;;;;8.82;2.92;;;17.80;99.90;;;;;;4963882;28;20094;-81
2023/10/06 12:02:53;;;;;;;7.22;3.03;;;17.70;99.90;;;;;;4972874;28;20030;-81
2023/10/06 12:05:22;;;;;;;9.63;3.30;;;17.60;99.90;;;;;;4960119;28;20039;-82
2023/10/06 12:07:49;;;;;;;12.15;2.70;;;17.60;99.90;;;;;;4971377;28;20031;-84
2023/10/06 12:10:20;;;;;;;9.07;3.08;;;17.60;99.90;;;;;;4962462;28;20042;-81
2023/10/06 12:12:49;;;;;;;11.95;3.13;;;17.60;99.90;;;;;;4967433;28;20494;-82
2023/10/06 12:15:15;;;;;;;12.55;3.08;;;17.50;99.90;;;;;;4967281;28;20030;-79
2023/10/06 12:17:45;;;;;;;6.88;2.72;;;17.50;99.90;;;;;;4968110;28;20452;-84
2023/10/06 12:20:13;;;;;;;11.27;3.97;;;17.50;99.90;;;;;;4965680;28;20118;-81
2023/10/06 12:22:46;;;;;;;14.50;3.17;;;17.50;99.90;;;;;;4966522;28;20038;-80
2023/10/06 12:25:15;;;;;;;9.05;3.00;;;17.50;99.90;;;;;;4969093;28;20027;-82
2023/10/06 12:27:43;;;;;;;7.10;2.47;;;17.50;99.90;;;;;;4970950;28;20080;-82
2023/10/06 12:30:10;;;;;;;7.38;3.50;;;17.50;99.90;;;;;;4967264;28;20077;-84
2023/10/06 12:32:37;;;;;;;12.48;3.35;;;17.50;99.90;;;;;;4957941;28;20118;-83
2023/10/06 12:35:08;;;;;;;8.55;3.28;;;17.60;99.90;;;;;;4965709;28;20023;-83
2023/10/06 12:37:34;;;;;;;8.45;2.92;;;17.70;99.90;;;;;;4964365;28;20534;-81
2023/10/06 12:40:00;;;;;;;8.50;3.35;;;17.70;99.90;;;;;;4965862;28;20039;-82
2023/10/06 12:42:31;;;;;;;6.38;2.88;;;17.60;99.90;;;;;;4962702;28;20293;-83
2023/10/06 12:44:57;;;;;;;8.10;2.75;;;17.70;99.90;;;;;;4964607;28;20019;-82
2023/10/06 12:47:23;;;;;;;10.05;3.30;;;17.60;99.90;;;;;;4964463;28;20166;-83
2023/10/06 12:49:48;;;;;;;5.50;2.80;;;17.80;99.90;;;;;;4963387;28;20494;-84
2023/10/06 12:52:14;;;;;;;10.15;3.08;;;17.90;99.90;;;;;;4964738;28;20038;-83
2023/10/06 12:54:41;;;;;;;9.02;3.35;;;17.90;99.90;;;;;;4963518;28;20161;-83
2023/10/06 12:57:06;;;;;;;11.15;3.22;;;18.00;99.90;;;;;;4963997;28;20034;-84
2023/10/06 12:59:34;;;;;;;6.90;2.95;;;18.00;99.90;;;;;;4957957;28;20035;-83
2023/10/06 13:02:03;;;;;;;7.25;3.13;;;18.10;99.90;;;;;;4964940;28;20380;-82
2023/10/06 13:04:29;;;;;;;7.88;2.50;;;18.20;99.90;;;;;;4958942;28;20055;-81
2023/10/06 13:06:58;;;;;;;9.27;3.05;;;18.10;99.90;;;;;;4961658;28;20395;-83